Time;durP1;ratioP1;P1;durP2;ratioP2;P2;SDS_P1;SDS_P2;PMS_P1;PMS_P2;Temp;Humidity;BMP_temperature;BMP_pressure;BME280_temperature;BME280_humidity;BME280_pressure;Samples;Min_cycle;Max_cycle;Signal;HPM_P1;HPM_P2
2022/06/03 00:00:32;;;;;;;;;;;11.80;99.90;;;;;;5091506;28;20402;-66
2022/06/03 00:03:20;;;;;;;;;;;11.80;99.90;;;;;;5091905;28;20445;-65
2022/06/03 00:05:51;;;;;;;;;;;11.80;99.90;;;;;;5091967;28;19966;-66
2022/06/03 00:08:44;;;;;;;;;;;11.70;99.90;;;;;;5091707;28;19919;-66
2022/06/03 00:11:24;;;;;;;;;;;11.70;99.90;;;;;;5091952;28;20023;-66
2022/06/03 00:13:50;;;;;;;;;;;11.70;99.90;;;;;;5091909;28;19916;-65
2022/06/03 00:16:21;;;;;;;;;;;11.70;99.90;;;;;;5091792;28;19922;-66
2022/06/03 00:18:48;;;;;;;;;;;11.50;99.90;;;;;;5091354;28;19959;-66
2022/06/03 00:21:37;;;;;;;;;;;11.60;99.90;;;;;;5091926;28;19916;-66
2022/06/03 00:24:02;;;;;;;;;;;11.50;99.90;;;;;;5091723;28;19923;-66
2022/06/03 00:26:28;;;;;;;;;;;11.50;99.90;;;;;;5091716;28;19961;-66
2022/06/03 00:29:05;;;;;;;;;;;11.40;99.90;;;;;;5091281;28;20291;-65
2022/06/03 00:31:46;;;;;;;;;;;11.40;99.90;;;;;;5091524;28;19955;-66
2022/06/03 00:34:23;;;;;;;;;;;11.40;99.90;;;;;;5091762;28;19972;-66
2022/06/03 00:36:55;;;;;;;;;;;11.30;99.90;;;;;;5091593;28;19916;-66
2022/06/03 00:39:26;;;;;;;;;;;11.40;99.90;;;;;;5091058;28;20384;-65
2022/06/03 00:42:10;;;;;;;;;;;11.40;99.90;;;;;;5091273;28;20371;-65
2022/06/03 00:44:53;;;;;;;;;;;11.40;99.90;;;;;;5091418;28;19926;-65
2022/06/03 00:47:37;;;;;;;;;;;11.30;99.90;;;;;;5091493;28;19922;-66
2022/06/03 00:50:02;;;;;;;;;;;11.20;99.90;;;;;;5090962;28;20311;-65
2022/06/03 00:52:46;;;;;;;;;;;11.20;99.90;;;;;;5089878;28;19998;-65
2022/06/03 00:55:30;;;;;;;;;;;11.30;99.90;;;;;;5091447;28;19924;-65
2022/06/03 00:58:07;;;;;;;;;;;11.20;99.90;;;;;;5091295;28;20397;-66
2022/06/03 01:00:40;;;;;;;;;;;11.10;99.90;;;;;;5090804;28;19922;-66
2022/06/03 01:03:19;;;;;;;;;;;11.10;99.90;;;;;;5091459;28;19915;-66
2022/06/03 01:05:47;;;;;;;;;;;11.10;99.90;;;;;;5094816;28;19927;-65
2022/06/03 01:08:16;;;;;;;;;;;11.10;99.90;;;;;;5095368;28;19916;-66
2022/06/03 01:10:56;;;;;;;;;;;11.10;99.90;;;;;;5095026;28;20312;-66
2022/06/03 01:13:40;;;;;;;;;;;11.00;99.90;;;;;;5095401;28;19920;-66
2022/06/03 01:16:25;;;;;;;;;;;11.00;99.90;;;;;;5095364;28;19942;-65
2022/06/03 01:18:58;;;;;;;;;;;11.10;99.90;;;;;;5094913;28;19922;-66
2022/06/03 01:21:29;;;;;;;;;;;11.10;99.90;;;;;;5094947;28;20005;-65
2022/06/03 01:24:16;;;;;;;;;;;11.00;99.90;;;;;;5095110;28;19926;-66
2022/06/03 01:27:01;;;;;;;;;;;11.00;99.90;;;;;;5095104;28;19934;-65
2022/06/03 01:29:32;;;;;;;;;;;11.00;99.90;;;;;;5094547;28;19966;-65
2022/06/03 01:32:19;;;;;;;;;;;10.90;99.90;;;;;;5094962;28;19967;-66
2022/06/03 01:35:03;;;;;;;;;;;11.00;99.90;;;;;;5094912;28;19916;-66
2022/06/03 01:37:34;;;;;;;;;;;10.90;99.90;;;;;;5094709;28;20010;-65
2022/06/03 01:40:00;;;;;;;;;;;10.90;99.90;;;;;;5094406;28;19955;-66
2022/06/03 01:42:32;;;;;;;;;;;10.80;99.90;;;;;;5094745;28;19963;-65
2022/06/03 01:45:00;;;;;;;;;;;10.80;99.90;;;;;;5094776;28;20011;-66
2022/06/03 01:47:49;;;;;;;;;;;10.80;99.90;;;;;;5094717;28;19916;-65
2022/06/03 01:50:33;;;;;;;;;;;10.80;99.90;;;;;;5094308;28;20395;-65
2022/06/03 01:53:17;;;;;;;;;;;10.70;99.90;;;;;;5094357;28;20008;-65
2022/06/03 01:55:45;;;;;;;;;;;10.60;99.90;;;;;;5094506;28;19931;-65
2022/06/03 01:58:21;;;;;;;;;;;10.50;99.90;;;;;;5094349;28;20003;-65
2022/06/03 02:00:50;;;;;;;;;;;10.50;99.90;;;;;;5093953;28;19923;-65
2022/06/03 02:03:30;;;;;;;;;;;10.50;99.90;;;;;;5094452;28;19923;-65
2022/06/03 02:06:15;;;;;;;;;;;10.50;99.90;;;;;;5094366;28;19916;-66
2022/06/03 02:08:51;;;;;;;;;;;10.40;99.90;;;;;;5093923;28;19916;-65
2022/06/03 02:11:34;;;;;;;;;;;10.40;99.90;;;;;;5094029;28;19920;-66
2022/06/03 02:13:59;;;;;;;;;;;10.40;99.90;;;;;;5094281;28;19923;-66
2022/06/03 02:16:31;;;;;;;;;;;10.40;99.90;;;;;;5093817;28;19916;-65
2022/06/03 02:19:03;;;;;;;;;;;10.40;99.90;;;;;;5093742;28;20045;-65
2022/06/03 02:21:49;;;;;;;;;;;10.30;99.90;;;;;;5093981;28;19916;-66
2022/06/03 02:24:24;;;;;;;;;;;10.30;99.90;;;;;;5094110;28;19927;-66
2022/06/03 02:26:56;;;;;;;;;;;10.40;99.90;;;;;;5093966;28;20341;-65
2022/06/03 02:32:23;;;;;;;;;;;10.40;99.90;;;;;;5093872;28;19920;-65
2022/06/03 02:34:52;;;;;;;;;;;10.30;99.90;;;;;;5093791;28;19916;-65
2022/06/03 02:37:35;;;;;;;;;;;10.30;99.90;;;;;;5093696;28;19919;-65
2022/06/03 02:40:19;;;;;;;;;;;10.20;99.90;;;;;;5093310;28;19916;-65
2022/06/03 02:42:45;;;;;;;;;;;10.20;99.90;;;;;;5093341;28;20449;-65
2022/06/03 02:45:12;;;;;;;;;;;10.20;99.90;;;;;;5093539;28;19920;-66
2022/06/03 02:47:56;;;;;;;;;;;10.20;99.90;;;;;;5093554;28;20330;-66
2022/06/03 02:50:40;;;;;;;;;;;10.20;99.90;;;;;;5093077;28;19930;-66
2022/06/03 02:53:24;;;;;;;;;;;10.20;99.90;;;;;;5093469;28;19977;-66
2022/06/03 02:56:02;;;;;;;;;;;10.10;99.90;;;;;;5093347;28;19958;-65
2022/06/03 02:58:30;;;;;;;;;;;10.10;99.90;;;;;;5092954;28;19923;-65
2022/06/03 03:01:16;;;;;;;;;;;10.10;99.90;;;;;;5092959;28;20372;-65
2022/06/03 03:04:08;;;;;;;;;;;10.00;99.90;;;;;;5093012;28;20399;-65
2022/06/03 03:06:49;;;;;;;;;;;10.00;99.90;;;;;;5093194;28;19916;-65
2022/06/03 03:09:29;;;;;;;;;;;10.00;99.90;;;;;;5092018;28;19916;-66
2022/06/03 03:12:07;;;;;;;;;;;10.10;99.90;;;;;;5089859;28;20006;-66
2022/06/03 03:14:43;;;;;;;;;;;10.10;99.90;;;;;;5090423;28;19981;-66
2022/06/03 03:17:29;;;;;;;;;;;10.10;99.90;;;;;;5090809;28;19916;-66
2022/06/03 03:20:05;;;;;;;;;;;10.10;99.90;;;;;;5078107;28;19922;-66
2022/06/03 03:22:30;;;;;;;;;;;10.10;99.90;;;;;;5092167;28;20050;-66
2022/06/03 03:24:56;;;;;;;;;;;10.20;99.90;;;;;;5091633;28;20042;-65
2022/06/03 03:27:31;;;;;;;;;;;10.10;99.90;;;;;;5091480;28;19930;-66
2022/06/03 03:30:03;;;;;;;;;;;10.10;99.90;;;;;;5092455;28;20003;-65
2022/06/03 03:32:39;;;;;;;;;;;10.10;99.90;;;;;;5092494;28;19951;-65
2022/06/03 03:35:23;;;;;;;;;;;10.00;99.90;;;;;;5092698;28;19916;-65
2022/06/03 03:38:07;;;;;;;;;;;10.10;99.90;;;;;;5092544;28;20273;-65
2022/06/03 03:40:47;;;;;;;;;;;10.00;99.90;;;;;;5092100;28;19968;-65
2022/06/03 03:43:12;;;;;;;;;;;10.00;99.90;;;;;;5092576;28;19999;-65
2022/06/03 03:45:44;;;;;;;;;;;10.10;99.90;;;;;;5092415;28;20436;-66
2022/06/03 03:48:20;;;;;;;;;;;10.10;99.90;;;;;;5092220;28;19916;-65
2022/06/03 03:50:50;;;;;;;;;;;10.20;99.90;;;;;;5090764;28;19923;-66
2022/06/03 03:53:34;;;;;;;;;;;10.20;99.90;;;;;;5092217;28;19923;-66
2022/06/03 03:56:18;;;;;;;;;;;10.30;99.90;;;;;;5092354;28;19916;-65
2022/06/03 03:58:56;;;;;;;;;;;10.40;99.90;;;;;;5091791;28;19916;-66
2022/06/03 04:01:42;;;;;;;;;;;10.50;99.90;;;;;;5091971;28;20403;-65
2022/06/03 04:04:20;;;;;;;;;;;10.50;99.90;;;;;;5092149;28;19943;-65
2022/06/03 04:07:04;;;;;;;;;;;10.60;99.90;;;;;;5092129;28;19916;-65
2022/06/03 04:09:48;;;;;;;;;;;10.70;99.90;;;;;;5091609;28;19923;-65
2022/06/03 04:12:22;;;;;;;;;;;10.80;99.90;;;;;;5091664;28;19923;-66
2022/06/03 04:15:07;;;;;;;;;;;10.80;99.90;;;;;;5091985;28;20346;-65
2022/06/03 04:17:50;;;;;;;;;;;11.00;99.90;;;;;;5091983;28;19924;-65
2022/06/03 04:20:31;;;;;;;;;;;11.00;99.90;;;;;;5091437;28;19927;-66
2022/06/03 04:23:16;;;;;;;;;;;11.00;99.90;;;;;;5091825;28;19920;-66
2022/06/03 04:25:41;;;;;;;;;;;11.20;99.90;;;;;;5091812;28;19923;-66
2022/06/03 04:28:19;;;;;;;;;;;11.30;99.90;;;;;;5091695;28;20373;-66
2022/06/03 04:30:44;;;;;;;;;;;11.40;99.90;;;;;;5091317;28;19922;-66
2022/06/03 04:33:10;;;;;;;;;;;11.50;99.90;;;;;;5091790;28;20298;-66
2022/06/03 04:35:38;;;;;;;;;;;11.60;99.90;;;;;;5091707;28;20288;-66
2022/06/03 04:38:22;;;;;;;;;;;11.60;99.90;;;;;;5091583;28;19924;-66
2022/06/03 04:40:57;;;;;;;;;;;11.70;99.90;;;;;;5091163;28;20449;-65
2022/06/03 04:43:31;;;;;;;;;;;11.80;99.90;;;;;;5091223;28;20356;-65
2022/06/03 04:45:59;;;;;;;;;;;12.00;99.90;;;;;;5091594;28;19927;-66
2022/06/03 04:48:25;;;;;;;;;;;12.20;99.90;;;;;;5091302;28;20008;-66
2022/06/03 04:50:50;;;;;;;;;;;12.40;99.90;;;;;;5091336;28;19970;-66
2022/06/03 04:53:34;;;;;;;;;;;12.50;99.90;;;;;;5091385;28;19923;-65
2022/06/03 04:56:35;;;;;;;;;;;12.50;99.90;;;;;;5091206;28;20307;-66
2022/06/03 04:59:09;;;;;;;;;;;12.60;99.90;;;;;;5008617;28;20279;-65
2022/06/03 05:01:54;;;;;;;;;;;12.70;99.90;;;;;;5078964;28;19920;-65
2022/06/03 05:04:37;;;;;;;;;;;12.80;99.90;;;;;;5090989;28;19928;-66
2022/06/03 05:07:21;;;;;;;;;;;12.90;99.90;;;;;;5091400;28;19961;-66
2022/06/03 05:10:05;;;;;;;;;;;13.10;99.90;;;;;;5090988;28;19942;-66
2022/06/03 05:12:48;;;;;;;;;;;13.30;99.90;;;;;;5091034;28;20352;-66
2022/06/03 05:15:14;;;;;;;;;;;13.40;99.90;;;;;;5091064;28;19916;-66
2022/06/03 05:17:40;;;;;;;;;;;13.40;99.90;;;;;;5091292;28;20057;-66
2022/06/03 05:20:13;;;;;;;;;;;13.50;99.90;;;;;;5090972;28;19942;-66
2022/06/03 05:22:44;;;;;;;;;;;13.40;99.90;;;;;;5091085;28;20003;-66
2022/06/03 05:25:16;;;;;;;;;;;13.60;99.90;;;;;;5090985;28;19924;-66
2022/06/03 05:28:01;;;;;;;;;;;13.60;99.90;;;;;;5091190;28;19964;-66
2022/06/03 05:30:37;;;;;;;;;;;13.70;99.90;;;;;;5090845;28;19939;-66
2022/06/03 05:33:26;;;;;;;;;;;13.70;99.90;;;;;;5090956;28;20368;-66
2022/06/03 05:36:07;;;;;;;;;;;13.70;99.90;;;;;;5091124;28;20031;-66
2022/06/03 05:38:40;;;;;;;;;;;13.80;99.90;;;;;;5090741;28;19920;-66
2022/06/03 05:44:21;;;;;;;;;;;14.10;99.90;;;;;;5090750;28;19931;-66
2022/06/03 05:47:06;;;;;;;;;;;14.10;99.90;;;;;;5089742;28;19916;-66
2022/06/03 05:49:52;;;;;;;;;;;14.10;99.90;;;;;;5089998;28;20591;-66
2022/06/03 05:52:25;;;;;;;;;;;14.10;99.90;;;;;;5094436;28;20013;-66
2022/06/03 05:55:10;;;;;;;;;;;14.30;99.90;;;;;;5094705;28;19916;-67
2022/06/03 05:57:50;;;;;;;;;;;14.30;99.90;;;;;;5094599;28;20320;-66
2022/06/03 06:00:30;;;;;;;;;;;14.30;99.90;;;;;;5094056;28;20002;-66
2022/06/03 06:03:18;;;;;;;;;;;14.20;99.90;;;;;;5094562;28;20335;-66
2022/06/03 06:06:09;;;;;;;;;;;14.30;99.90;;;;;;5094334;28;19927;-66
2022/06/03 06:08:51;;;;;;;;;;;14.60;99.90;;;;;;4994986;28;19917;-66
2022/06/03 06:11:26;;;;;;;;;;;14.70;99.90;;;;;;5011814;28;20523;-67
2022/06/03 06:14:04;;;;;;;;;;;14.60;99.90;;;;;;5011761;28;20293;-66
2022/06/03 06:16:37;;;;;;;;;;;14.70;99.90;;;;;;5011743;28;19923;-66
2022/06/03 06:19:04;;;;;;;;;;;14.80;99.90;;;;;;5011318;28;20067;-66
2022/06/03 06:21:47;;;;;;;;;;;14.80;99.90;;;;;;5011447;28;19917;-66
2022/06/03 06:24:15;;;;;;;;;;;14.80;99.90;;;;;;5011558;28;20422;-66
2022/06/03 06:26:59;;;;;;;;;;;14.90;99.90;;;;;;5011505;28;19918;-66
2022/06/03 06:29:43;;;;;;;;;;;14.90;99.90;;;;;;5011191;28;19918;-66
2022/06/03 06:32:27;;;;;;;;;;;15.00;99.90;;;;;;5011316;28;19927;-66
2022/06/03 06:35:07;;;;;;;;;;;15.00;99.90;;;;;;5011363;28;19940;-66
2022/06/03 06:37:33;;;;;;;;;;;15.00;99.90;;;;;;5011390;28;19956;-66
2022/06/03 06:40:06;;;;;;;;;;;15.10;99.90;;;;;;5010918;28;20378;-66
2022/06/03 06:42:37;;;;;;;;;;;15.10;99.90;;;;;;5011240;28;19973;-67
2022/06/03 06:45:18;;;;;;;;;;;15.20;99.90;;;;;;5040617;28;19920;-66
2022/06/03 06:48:10;;;;;;;;;;;15.30;99.90;;;;;;5093567;28;19919;-66
2022/06/03 06:50:41;;;;;;;;;;;15.60;99.90;;;;;;5093116;28;19998;-66
2022/06/03 06:53:16;;;;;;;;;;;15.50;99.90;;;;;;5093560;28;19915;-66
2022/06/03 06:56:01;;;;;;;;;;;15.70;99.90;;;;;;5093489;28;20427;-67
2022/06/03 06:58:45;;;;;;;;;;;15.70;99.90;;;;;;5093004;28;19916;-67
2022/06/03 07:01:17;;;;;;;;;;;15.70;99.90;;;;;;5093053;28;20056;-66
2022/06/03 07:03:49;;;;;;;;;;;15.70;99.90;;;;;;5092635;28;19924;-66
2022/06/03 07:06:25;;;;;;;;;;;15.80;99.90;;;;;;5093114;28;19923;-66
2022/06/03 07:09:19;;;;;;;;;;;16.00;99.90;;;;;;5092877;28;20300;-66
2022/06/03 07:11:44;;;;;;;;;;;16.10;99.90;;;;;;5093187;28;19931;-67
2022/06/03 07:14:22;;;;;;;;;;;16.20;99.90;;;;;;5091642;28;19939;-66
2022/06/03 07:19:50;;;;;;;;;;;16.20;99.90;;;;;;5092500;28;20376;-66
2022/06/03 07:22:15;;;;;;;;;;;16.30;99.90;;;;;;5093011;28;19916;-67
2022/06/03 07:24:41;;;;;;;;;;;16.30;99.90;;;;;;5092877;28;20383;-67
2022/06/03 07:27:12;;;;;;;;;;;16.50;99.90;;;;;;5092864;28;20331;-66
2022/06/03 07:30:01;;;;;;;;;;;16.50;99.90;;;;;;5092386;28;20364;-67
2022/06/03 07:32:28;;;;;;;;;;;16.60;99.90;;;;;;5081620;28;19916;-66
2022/06/03 07:35:05;;;;;;;;;;;16.50;99.90;;;;;;5092681;28;19920;-66
2022/06/03 07:37:36;;;;;;;;;;;16.70;99.90;;;;;;5092731;28;20005;-67
2022/06/03 07:40:02;;;;;;;;;;;16.70;99.90;;;;;;5092207;28;19924;-66
2022/06/03 07:42:46;;;;;;;;;;;16.80;99.90;;;;;;5092292;28;19923;-67
2022/06/03 07:45:14;;;;;;;;;;;17.00;99.90;;;;;;5090940;28;19920;-67
2022/06/03 07:47:40;;;;;;;;;;;17.00;99.90;;;;;;5092319;28;20008;-67
2022/06/03 07:50:07;;;;;;;;;;;17.00;99.90;;;;;;5092144;28;19963;-67
2022/06/03 07:52:38;;;;;;;;;;;17.20;99.90;;;;;;5092198;28;19916;-66
2022/06/03 07:55:06;;;;;;;;;;;17.20;99.90;;;;;;5092118;28;19915;-67
2022/06/03 07:57:32;;;;;;;;;;;17.30;99.90;;;;;;5092415;28;19926;-67
2022/06/03 08:00:01;;;;;;;;;;;17.20;99.90;;;;;;5091844;28;19994;-67
2022/06/03 08:02:27;;;;;;;;;;;17.40;99.90;;;;;;5090834;28;19969;-67
2022/06/03 08:05:02;;;;;;;;;;;17.50;99.90;;;;;;5092007;28;19924;-67
2022/06/03 08:13:02;;;;;;;;;;;17.60;99.90;;;;;;5091697;28;19931;-66
2022/06/03 08:15:34;;;;;;;;;;;17.80;99.90;;;;;;5091975;28;19916;-67
2022/06/03 08:18:00;;;;;;;;;;;17.90;99.90;;;;;;5091744;28;19915;-67
2022/06/03 08:20:26;;;;;;;;;;;17.90;99.90;;;;;;5091705;28;19915;-66
2022/06/03 08:22:53;;;;;;;;;;;17.90;99.90;;;;;;5091797;28;19969;-67
2022/06/03 08:25:25;;;;;;;;;;;18.10;99.90;;;;;;5091752;28;19920;-67
2022/06/03 08:27:51;;;;;;;;;;;18.10;99.90;;;;;;5091735;28;19915;-67
2022/06/03 08:30:19;;;;;;;;;;;18.10;99.90;;;;;;5091371;28;19920;-66
2022/06/03 08:32:49;;;;;;;;;;;18.20;99.90;;;;;;5091496;28;20363;-67
2022/06/03 08:35:16;;;;;;;;;;;18.20;99.90;;;;;;5091690;28;19916;-67
2022/06/03 08:37:46;;;;;;;;;;;18.30;99.90;;;;;;5091666;28;19999;-67
2022/06/03 08:40:23;;;;;;;;;;;18.40;99.90;;;;;;5091353;28;19955;-67
2022/06/03 08:42:55;;;;;;;;;;;18.40;99.90;;;;;;5091399;28;19916;-67
2022/06/03 08:45:26;;;;;;;;;;;18.50;99.90;;;;;;5090502;28;19974;-67
2022/06/03 08:47:53;;;;;;;;;;;18.50;99.90;;;;;;5091685;28;19970;-67
2022/06/03 08:50:34;;;;;;;;;;;18.70;99.90;;;;;;5091307;28;19916;-67
2022/06/03 08:53:05;;;;;;;;;;;18.70;99.90;;;;;;5091364;28;19916;-67
2022/06/03 08:55:35;;;;;;;;;;;18.70;99.90;;;;;;5091196;28;20007;-67
2022/06/03 08:58:11;;;;;;;;;;;18.60;99.90;;;;;;5091549;28;20015;-67
2022/06/03 09:00:57;;;;;;;;;;;18.60;99.90;;;;;;5091048;28;19924;-67
2022/06/03 09:03:23;;;;;;;;;;;18.70;99.90;;;;;;5091458;28;19923;-67
2022/06/03 09:05:59;;;;;;;;;;;18.80;99.90;;;;;;5091429;28;19920;-67
2022/06/03 09:08:32;;;;;;;;;;;18.70;99.90;;;;;;5091365;28;19962;-67
2022/06/03 09:11:07;;;;;;;;;;;18.80;99.90;;;;;;5091396;28;20304;-67
2022/06/03 09:13:40;;;;;;;;;;;18.80;99.90;;;;;;5091447;28;19923;-67
2022/06/03 09:16:06;;;;;;;;;;;19.00;99.90;;;;;;5091380;28;20266;-67
2022/06/03 09:18:34;;;;;;;;;;;18.90;99.90;;;;;;5091013;28;19924;-67
2022/06/03 09:21:05;;;;;;;;;;;19.10;99.90;;;;;;5091376;28;19923;-67
2022/06/03 09:23:33;;;;;;;;;;;19.10;99.90;;;;;;5091378;28;19916;-67
2022/06/03 09:26:00;;;;;;;;;;;19.20;99.90;;;;;;5093307;28;20506;-67
2022/06/03 09:28:31;;;;;;;;;;;19.20;99.90;;;;;;5095007;28;19920;-67
2022/06/03 09:30:57;;;;;;;;;;;19.20;99.90;;;;;;5094960;28;20377;-67
2022/06/03 09:33:25;;;;;;;;;;;19.30;99.90;;;;;;5095213;28;19938;-67
2022/06/03 09:35:52;;;;;;;;;;;19.40;99.90;;;;;;5095001;28;19923;-67
2022/06/03 09:38:19;;;;;;;;;;;19.50;99.90;;;;;;5094860;28;19967;-67
2022/06/03 09:40:45;;;;;;;;;;;19.50;99.90;;;;;;5094655;28;20013;-67
2022/06/03 09:43:20;;;;;;;;;;;19.70;99.90;;;;;;5094809;28;19916;-67
2022/06/03 09:45:46;;;;;;;;;;;19.70;99.90;;;;;;5094850;28;19927;-67
2022/06/03 09:48:20;;;;;;;;;;;19.70;99.90;;;;;;5094880;28;19930;-66
2022/06/03 09:50:47;;;;;;;;;;;19.90;99.90;;;;;;5094476;28;19976;-67
2022/06/03 09:53:16;;;;;;;;;;;19.60;99.90;;;;;;5094652;28;19924;-67
2022/06/03 09:55:47;;;;;;;;;;;19.60;99.90;;;;;;5094343;28;19927;-66
2022/06/03 09:58:15;;;;;;;;;;;19.70;99.90;;;;;;5094452;28;20380;-67
2022/06/03 10:00:43;;;;;;;;;;;19.80;99.90;;;;;;5094068;28;19923;-67
2022/06/03 10:03:10;;;;;;;;;;;19.60;99.90;;;;;;5094319;28;20407;-67
2022/06/03 10:05:35;;;;;;;;;;;19.90;99.90;;;;;;5094321;28;19920;-67
2022/06/03 10:08:03;;;;;;;;;;;19.90;99.90;;;;;;5094345;28;19927;-67
2022/06/03 10:13:12;;;;;;;;;;;19.90;99.90;;;;;;5094194;28;20388;-67
2022/06/03 10:15:43;;;;;;;;;;;19.80;99.90;;;;;;5094182;28;19916;-67
2022/06/03 10:18:15;;;;;;;;;;;19.90;99.90;;;;;;5093996;28;19923;-67
2022/06/03 10:20:41;;;;;;;;;;;19.90;99.90;;;;;;5093737;28;19998;-67
2022/06/03 10:23:08;;;;;;;;;;;20.00;99.90;;;;;;5093789;28;19927;-67
2022/06/03 10:25:35;;;;;;;;;;;20.00;99.90;;;;;;5094065;28;19920;-67
2022/06/03 10:28:02;;;;;;;;;;;20.10;99.90;;;;;;5093846;28;20388;-67
2022/06/03 10:30:28;;;;;;;;;;;20.10;99.90;;;;;;5093639;28;19973;-67
2022/06/03 10:32:54;;;;;;;;;;;20.20;99.90;;;;;;5093711;28;19939;-67
2022/06/03 10:35:26;;;;;;;;;;;20.20;99.90;;;;;;5093598;28;19916;-67
2022/06/03 10:37:59;;;;;;;;;;;20.30;99.90;;;;;;5093738;28;19916;-67
2022/06/03 10:40:26;;;;;;;;;;;20.30;99.90;;;;;;5091993;28;19958;-67
2022/06/03 10:42:54;;;;;;;;;;;20.10;99.90;;;;;;5092385;28;19927;-67
2022/06/03 10:45:25;;;;;;;;;;;20.10;99.90;;;;;;5093410;28;20369;-68
2022/06/03 10:47:51;;;;;;;;;;;20.20;99.90;;;;;;5093574;28;19923;-67
2022/06/03 10:50:19;;;;;;;;;;;20.30;99.90;;;;;;5093437;28;19920;-67
2022/06/03 11:01:15;;;;;;;;;;;20.40;99.90;;;;;;5093470;28;19923;-67
2022/06/03 11:03:41;;;;;;;;;;;20.40;99.90;;;;;;5093253;28;19923;-67
2022/06/03 11:06:17;;;;;;;;;;;20.40;99.90;;;;;;5093171;28;19948;-67
2022/06/03 11:08:46;;;;;;;;;;;20.30;99.90;;;;;;5092814;28;19916;-67
2022/06/03 11:11:11;;;;;;;;;;;20.30;99.90;;;;;;5093120;28;19916;-67
2022/06/03 11:13:39;;;;;;;;;;;20.40;99.90;;;;;;5092905;28;19919;-67
2022/06/03 11:16:12;;;;;;;;;;;20.50;99.00;;;;;;5093017;28;19984;-67
2022/06/03 11:18:37;;;;;;;;;;;20.50;99.80;;;;;;5092518;28;20398;-67
2022/06/03 11:21:17;;;;;;;;;;;20.50;99.90;;;;;;5092747;28;19920;-67
2022/06/03 11:23:43;;;;;;;;;;;20.50;99.80;;;;;;5093030;28;19944;-67
2022/06/03 11:26:09;;;;;;;;;;;20.60;99.20;;;;;;5092912;28;20323;-67
2022/06/03 11:28:38;;;;;;;;;;;20.60;99.50;;;;;;5091349;28;20356;-67
2022/06/03 11:31:06;;;;;;;;;;;20.60;98.60;;;;;;5092734;28;19985;-67
2022/06/03 11:33:53;;;;;;;;;;;20.70;99.90;;;;;;5092731;28;19963;-67
2022/06/03 11:36:21;;;;;;;;;;;20.60;99.40;;;;;;5092522;28;20501;-67
2022/06/03 11:39:13;;;;;;;;;;;20.70;99.90;;;;;;5092256;28;20321;-67
2022/06/03 11:41:40;;;;;;;;;;;20.60;99.90;;;;;;5060932;28;19923;-67
2022/06/03 11:44:13;;;;;;;;;;;20.70;99.90;;;;;;5092318;28;19920;-67
2022/06/03 11:46:54;;;;;;;;;;;20.70;99.90;;;;;;5092620;28;19931;-67
2022/06/03 11:49:21;;;;;;;;;;;20.70;99.90;;;;;;5091593;28;20292;-67
2022/06/03 11:51:47;;;;;;;;;;;20.80;99.90;;;;;;5092223;28;19969;-67
2022/06/03 11:54:14;;;;;;;;;;;20.60;99.90;;;;;;5092336;28;19927;-67
2022/06/03 11:56:41;;;;;;;;;;;20.80;99.90;;;;;;5092165;28;19916;-68
2022/06/03 11:59:09;;;;;;;;;;;20.80;99.70;;;;;;5091949;28;19916;-67
2022/06/03 12:01:41;;;;;;;;;;;20.80;99.90;;;;;;5092269;28;19923;-67
2022/06/03 12:04:15;;;;;;;;;;;20.90;99.90;;;;;;5092108;28;20002;-67
2022/06/03 12:07:01;;;;;;;;;;;20.90;99.90;;;;;;5092094;28;20003;-67
2022/06/03 12:09:45;;;;;;;;;;;20.80;99.90;;;;;;5050143;28;20038;-67
2022/06/03 12:15:24;;;;;;;;;;;20.90;99.90;;;;;;5092007;28;19920;-67
2022/06/03 12:17:50;;;;;;;;;;;20.90;99.90;;;;;;5091825;28;20391;-67
2022/06/03 12:20:33;;;;;;;;;;;20.90;98.60;;;;;;5091706;28;19916;-67
2022/06/03 12:23:18;;;;;;;;;;;21.00;99.90;;;;;;5091767;28;19916;-68
2022/06/03 12:25:53;;;;;;;;;;;21.00;98.10;;;;;;5091493;28;19959;-67
2022/06/03 12:28:42;;;;;;;;;;;21.00;98.90;;;;;;5091899;28;19923;-67
2022/06/03 12:31:20;;;;;;;;;;;21.00;99.90;;;;;;5080853;28;19919;-67
2022/06/03 12:33:58;;;;;;;;;;;21.10;99.10;;;;;;5091668;28;19923;-67
2022/06/03 12:36:42;;;;;;;;;;;21.10;97.60;;;;;;5091377;28;19916;-67
2022/06/03 12:39:08;;;;;;;;;;;21.00;99.30;;;;;;5091415;28;19924;-67
2022/06/03 12:41:45;;;;;;;;;;;21.10;97.50;;;;;;5091555;28;19923;-67
2022/06/03 12:44:29;;;;;;;;;;;21.00;98.60;;;;;;5091261;28;19920;-67
2022/06/03 12:47:15;;;;;;;;;;;21.10;99.60;;;;;;5091660;28;20003;-67
2022/06/03 12:49:44;;;;;;;;;;;21.20;98.50;;;;;;5091109;28;20002;-67
2022/06/03 12:52:34;;;;;;;;;;;21.10;99.50;;;;;;5091279;28;20386;-67
2022/06/03 12:55:13;;;;;;;;;;;21.00;96.60;;;;;;5091418;28;19916;-67
2022/06/03 12:57:45;;;;;;;;;;;21.00;98.10;;;;;;5091615;28;19915;-67
2022/06/03 13:00:19;;;;;;;;;;;21.20;98.80;;;;;;5091850;28;19916;-67
2022/06/03 13:02:58;;;;;;;;;;;21.20;99.00;;;;;;5095629;28;19916;-67
2022/06/03 13:05:47;;;;;;;;;;;21.10;99.40;;;;;;5094039;28;20390;-67
2022/06/03 13:08:27;;;;;;;;;;;21.20;98.30;;;;;;5084593;28;19919;-67
2022/06/03 13:10:55;;;;;;;;;;;21.20;98.40;;;;;;5095416;28;19915;-67
2022/06/03 13:13:28;;;;;;;;;;;21.30;99.90;;;;;;5095348;28;19916;-67
2022/06/03 13:15:53;;;;;;;;;;;21.50;99.90;;;;;;5095252;28;19916;-67
2022/06/03 13:18:40;;;;;;;;;;;21.40;99.10;;;;;;5095447;28;19923;-67
2022/06/03 13:21:05;;;;;;;;;;;21.20;97.30;;;;;;5095232;28;20240;-67
2022/06/03 13:23:51;;;;;;;;;;;21.30;97.30;;;;;;5095239;28;19920;-67
2022/06/03 13:26:29;;;;;;;;;;;21.30;98.10;;;;;;5053641;28;19924;-67
2022/06/03 13:29:02;;;;;;;;;;;21.40;96.00;;;;;;5094970;28;19923;-67
2022/06/03 13:31:30;;;;;;;;;;;21.30;97.20;;;;;;5095113;28;19919;-67
2022/06/03 13:33:58;;;;;;;;;;;21.30;98.40;;;;;;5094916;28;19916;-67
2022/06/03 13:36:34;;;;;;;;;;;21.30;97.00;;;;;;5094888;28;19916;-67
2022/06/03 13:39:00;;;;;;;;;;;21.30;96.10;;;;;;5094850;28;20381;-67
2022/06/03 13:44:41;;;;;;;;;;;21.40;97.20;;;;;;5094766;28;19924;-67
2022/06/03 13:47:28;;;;;;;;;;;21.40;98.30;;;;;;5094844;28;19927;-67
2022/06/03 13:50:08;;;;;;;;;;;21.40;98.90;;;;;;5094242;28;20364;-67
2022/06/03 13:52:36;;;;;;;;;;;21.40;98.10;;;;;;5094701;28;19916;-67
2022/06/03 13:55:09;;;;;;;;;;;21.40;97.80;;;;;;5094657;28;19923;-67
2022/06/03 13:57:36;;;;;;;;;;;21.40;97.60;;;;;;5094396;28;19963;-67
2022/06/03 14:00:16;;;;;;;;;;;21.40;98.30;;;;;;5094206;28;19923;-67
2022/06/03 14:02:42;;;;;;;;;;;21.40;97.70;;;;;;5092999;28;19920;-67
2022/06/03 14:05:09;;;;;;;;;;;21.50;99.20;;;;;;5094360;28;19931;-67
2022/06/03 14:07:41;;;;;;;;;;;21.50;98.50;;;;;;5094349;28;20411;-67
2022/06/03 14:10:11;;;;;;;;;;;21.50;97.70;;;;;;5093918;28;20348;-67
2022/06/03 14:12:40;;;;;;;;;;;21.50;98.80;;;;;;5093771;28;19939;-67
2022/06/03 14:15:07;;;;;;;;;;;21.50;96.50;;;;;;5094304;28;19916;-67
2022/06/03 14:17:44;;;;;;;;;;;21.50;97.90;;;;;;5094127;28;19920;-67
2022/06/03 14:20:13;;;;;;;;;;;21.50;94.80;;;;;;5093794;28;19916;-67
2022/06/03 14:22:44;;;;;;;;;;;21.40;95.10;;;;;;5093934;28;19916;-67
2022/06/03 14:25:13;;;;;;;;;;;21.40;97.20;;;;;;5094025;28;19943;-67
2022/06/03 14:27:49;;;;;;;;;;;21.40;98.70;;;;;;5094155;28;19966;-67
2022/06/03 14:30:17;;;;;;;;;;;21.40;96.40;;;;;;5093630;28;19946;-67
2022/06/03 14:32:46;;;;;;;;;;;21.40;98.40;;;;;;5093711;28;20372;-67
2022/06/03 14:35:17;;;;;;;;;;;21.50;98.40;;;;;;5093622;28;19920;-68
2022/06/03 14:37:55;;;;;;;;;;;21.50;97.90;;;;;;5093967;28;20405;-67
2022/06/03 14:40:26;;;;;;;;;;;21.60;97.80;;;;;;5093481;28;19915;-67
2022/06/03 14:42:54;;;;;;;;;;;21.60;96.90;;;;;;5093555;28;19927;-67
2022/06/03 14:45:20;;;;;;;;;;;21.60;97.00;;;;;;5093506;28;19926;-67
2022/06/03 14:47:49;;;;;;;;;;;21.50;95.10;;;;;;5093811;28;20369;-67
2022/06/03 14:50:17;;;;;;;;;;;21.60;95.70;;;;;;5093385;28;19916;-67
2022/06/03 14:52:46;;;;;;;;;;;21.60;94.50;;;;;;5093405;28;19963;-67
2022/06/03 14:55:16;;;;;;;;;;;21.60;97.50;;;;;;5093422;28;19920;-67
2022/06/03 14:57:52;;;;;;;;;;;21.60;96.50;;;;;;5093315;28;19920;-67
2022/06/03 15:00:34;;;;;;;;;;;21.50;92.70;;;;;;5093025;28;19927;-67
2022/06/03 15:03:00;;;;;;;;;;;21.50;93.60;;;;;;5093420;28;20000;-67
2022/06/03 15:05:27;;;;;;;;;;;21.60;94.90;;;;;;5093198;28;19971;-67
2022/06/03 15:07:58;;;;;;;;;;;21.50;95.20;;;;;;5093219;28;19924;-67
2022/06/03 15:10:25;;;;;;;;;;;21.60;95.40;;;;;;5092765;28;20417;-67
2022/06/03 15:12:52;;;;;;;;;;;21.50;95.70;;;;;;5091638;28;19935;-67
2022/06/03 15:15:23;;;;;;;;;;;21.50;96.10;;;;;;5093146;28;19981;-67
2022/06/03 15:17:49;;;;;;;;;;;21.60;96.90;;;;;;5093094;28;19920;-67
2022/06/03 15:20:14;;;;;;;;;;;21.50;94.70;;;;;;5092651;28;20283;-67
2022/06/03 15:22:45;;;;;;;;;;;21.60;95.20;;;;;;5091949;28;20011;-67
2022/06/03 15:25:19;;;;;;;;;;;21.50;95.10;;;;;;5092619;28;19931;-67
2022/06/03 15:27:59;;;;;;;;;;;21.50;95.60;;;;;;5092962;28;19923;-67